This is the latest recevied weather packets stored in our database for station/object AB8XS. If no packets are shown the sender has not sent any weather packets the latest 10 day(s).
| Time | Temp. | Humidity | Pressure | Rain* | Wind** | Luminosity | Snow |
|---|---|---|---|---|---|---|---|
| 1777651531 | 7.22° C | 60% | 1015 hPa | 0 mm | - | 316 W/m² | - |
| 1777647616 | 5.56° C | 65% | 1014.9 hPa | 0 mm | - | 125 W/m² | - |
| 1777647331 | 5.56° C | 66% | 1014.9 hPa | 0 mm | - | 106 W/m² | - |
| 1777647017 | 5° C | 68% | 1014.9 hPa | 0 mm | - | 124 W/m² | - |
| 1777646416 | 5° C | 72% | 1014.9 hPa | 0 mm | - | 119 W/m² | - |
| 1777645516 | 4.44° C | 73% | 1014.9 hPa | 0 mm | - | 126 W/m² | - |
| 1777642846 | 3.89° C | 78% | 1014.8 hPa | 0 mm | - | 85 W/m² | - |
| 1777642216 | 3.89° C | 78% | 1014.8 hPa | 0 mm | - | 65 W/m² | - |
| 1777641316 | 3.89° C | 78% | 1014.8 hPa | 0 mm | - | 36 W/m² | - |
| 1777640716 | 3.89° C | 77% | 1014.6 hPa | 0 mm | - | 39 W/m² | - |
| 1777640416 | 3.89° C | 77% | 1014.6 hPa | 0 mm | - | 35 W/m² | - |
| 1777639231 | 3.89° C | 76% | 1014.6 hPa | 0 mm | - | 14 W/m² | - |
| 1777636816 | 3.89° C | 73% | 1014.1 hPa | 0 mm | - | 12 W/m² | - |
| 1777635631 | 3.89° C | 74% | 1014 hPa | 0 mm | - | 10 W/m² | - |
| 1777630516 | 3.89° C | 72% | 1013.6 hPa | 0 mm | - | 0 W/m² | - |
| 1777629316 | 3.89° C | 72% | 1013.5 hPa | 0 mm | - | 0 W/m² | - |
| 1777629016 | 3.89° C | 72% | 1013.4 hPa | 0 mm | - | 0 W/m² | - |
| 1777626661 | 3.89° C | 72% | 1013.4 hPa | 0 mm | - | 0 W/m² | - |
| 1777625416 | 4.44° C | 72% | 1013.5 hPa | 0 mm | - | 0 W/m² | - |
| 1777623616 | 4.44° C | 70% | 1013.4 hPa | 0 mm | - | 0 W/m² | - |
| 1777620916 | 5° C | 68% | 1013.4 hPa | 0 mm | - | 0 W/m² | - |
| 1777619716 | 5° C | 69% | 1013.6 hPa | 0 mm | - | 0 W/m² | - |
| 1777619116 | 5° C | 69% | 1013.7 hPa | 0 mm | - | 0 W/m² | - |
| 1777617616 | 5° C | 68% | 1014.1 hPa | 0 mm | - | 0 W/m² | - |
| 1777613416 | 5.56° C | 70% | 1014.3 hPa | 0 mm | - | 0 W/m² | - |
* Rain latest hour (hover to see other rain measurements)
** Current wind speed in m/s (hover to see current wind gust speed)